x

New Dungeness - 17 Nm Ne Of Port Angeles, Wa (46088) Wave Buoy

8:50 - Tue 24th Jan 2017 All times are PST. -8 hours from GMT.

  • Sig Wave height 0.3ft
  • Average Period 5s
  • Wind
    7mph, 9mph gusts
  • Sea Temp 46°f
  • Ar Temp 42°f
  • Sea Pressure 1019mb
  • New Dungeness - 17 Nm Ne Of Port Angeles, Wa
  • New Dungeness - 17 Nm Ne Of Port Angeles, Wa

More Historic Weather Station data

Upgrade to MSW Pro to gain access to the past 30 days of data for over 8000 Wavebouys and Weather Stations around the globe.

Join Pro

Comparision Forecast

View Surf forecast
   
Ter 01/24 8:50 0.3ft  -  5s 7 9 mph 1019mb 46f 42f
8:20 0.3ft  -  5s 7 11 mph 1018.8mb 46f 42f
7:50 0.3ft  -  5s 4 7 mph 1018.6mb 46f 42f
7:20 0.3ft  -  5s 7 11 mph 1018.5mb 46f 42f
6:50 0.3ft  -  6s 7 9 mph 1018.4mb 46f 42f
6:20 0.3ft  -  5s 7 9 mph 1018.1mb 46f 41f
5:50 0.3ft  -  4s 7
mph
1018.1mb 46f 42f
5:20 0.3ft  -  4s 4
mph
1017.9mb 46f 42f
4:50 0.3ft  -  6s 7 9 mph 1017.5mb 46f 43f
4:20 0.3ft  -  5s 7 9 mph 1017.2mb 46f 43f
3:50 0.3ft  -  4s 4 7 mph 1017mb 46f 43f
3:20 0.3ft  -  4s 7
mph
1016.9mb 46f 43f
2:50 0.3ft  -  4s 7 9 mph 1016.7mb 46f 43f
2:20 0.3ft  -  4s 7
mph
1016.4mb 46f 43f
1:50 0.3ft  -  3s 4 7 mph 1016.2mb 46f 43f
1:20 0.3ft  -  3s 2 4 mph 1016.1mb 46f 43f
12:50 0.7ft  -  3s 4 7 mph 1016.1mb 46f 43f
12:20 1ft 3s 3s 7
mph
1016.2mb 46f 44f
Seg 01/23 11:50 1ft 3s 3s 4 7 mph 1016mb 46f 44f
11:20 0.7ft  -  3s 7 11 mph 1015.7mb 46f 44f
10:50 0.7ft  -  3s 9
mph
1015.3mb 46f 45f
10:20 0.3ft  -  3s 7 9 mph 1015mb 46f 45f
9:50 0.3ft  -  4s 7 9 mph 1014.8mb 46f 45f
9:20 0.3ft  -  4s 7
mph
1014.3mb 46f 45f
8:50 0.3ft  -  4s 4 7 mph 1014.2mb 46f 45f
8:20 0.7ft  -  3s 4 7 mph 1014mb 46f 45f
7:50 0.3ft  -  3s 4
mph
1013.9mb 46f 45f
7:20 0.3ft  -  4s 4
mph
1013.8mb 46f 45f
6:50 0.3ft  -  4s 2 4 mph 1013.6mb 46f 45f
6:20 0.3ft  -  4s 4 7 mph 1013.5mb 46f 45f
5:50 0.3ft  -  4s 4 7 mph 1013.2mb 46f 45f
5:20 0.3ft  -  3s 7 9 mph 1013mb 46f 45f
4:50 0.3ft  -  3s 4 7 mph 1012.6mb 46f 46f
4:20 0.3ft  -  3s 4
mph
1012.3mb 46f 46f
3:50 0.3ft  -  3s 2
mph
1012mb 46f 47f
3:20 0.3ft  -  4s 4
mph
1011.8mb 46f 46f
2:50 0.3ft  -  4s 4 7 mph 1011.4mb 46f 46f
2:20 0.3ft  -  3s 4 7 mph 1011.3mb 46f 45f
1:50 0.3ft  -  4s 7 9 mph 1011mb 46f 45f
1:20 0.3ft  -  3s 7 9 mph 1011mb 46f 45f
12:50 0.3ft  -  3s 9
mph
1010.8mb 46f 44f
12:20 0.7ft  -  3s 7
mph
1010.7mb 46f 44f
11:50 0.7ft  -  3s 9 11 mph 1010.6mb 46f 44f
11:20 0.7ft  -  3s 9 11 mph 1010.4mb 46f 43f
10:50 0.7ft  -  3s 11 13 mph 1010.3mb 46f 43f
10:20 0.3ft  -  3s 11 13 mph 1010.1mb 46f 43f
9:50 0.3ft  -  3s 11 13 mph 1009.5mb 46f 43f
9:20 0.3ft  -  3s 4 7 mph 1009.3mb 46f 43f
8:50 0.7ft  -  3s 9 11 mph 1008.8mb 46f 43f
8:20 0.7ft  -  3s 7 9 mph 1008.4mb 46f 43f
7:50 0.7ft  -  3s 11 13 mph 1007.8mb 46f 43f
7:20 0.3ft  -  3s 13 16 mph 1007.3mb 46f 43f
6:50 0.3ft  -  3s 11 13 mph 1006.7mb 46f 43f
6:20 0.3ft  -  3s 9
mph
1006.4mb 46f 44f
5:50 0.7ft  -  3s 9 11 mph 1006mb 46f 43f
5:20 0.7ft  -  3s 11
mph
1005.4mb 46f 43f
4:50 0.7ft  -  3s 9 11 mph 1005.1mb 46f 44f
4:20 1ft 3s 3s 9
mph
1005mb 46f 43f
3:50 1ft 3s 3s 7 9 mph 1004.6mb 46f 44f
3:20 1ft 3s 3s 7 9 mph 1004.3mb 46f 44f
2:50 1ft 3s 3s 4 7 mph 1003.9mb 46f 44f
2:20 1.3ft 3s 3s 9
mph
1003.4mb 46f 44f
1:50 1.3ft 4s 3s 9 11 mph 1003mb 46f 44f
1:20 1.3ft 4s 3s 11 13 mph 1002.7mb 46f 44f
12:50 1.6ft 4s 4s 11 13 mph 1002.3mb 46f 44f
12:20 1.3ft 4s 4s 11 13 mph 1002.1mb 46f 45f
Dom 01/22 11:50 1.6ft 4s 4s 7 11 mph 1002mb 46f 45f
11:20 1.6ft 4s 4s 7 9 mph 1002mb 46f 46f
10:50 2ft 4s 4s 4 9 mph 1001.9mb 46f 46f
10:20 1.6ft 4s 4s 9 11 mph 1001.6mb 46f 46f
9:50 2ft 4s 4s 11 16 mph 1001.1mb 46f 46f
9:20 2.5ft 4s 4s 13 16 mph 1001mb 46f 46f
8:50 2.5ft 4s 4s 16 18 mph 1000.8mb 46f 46f
8:20 2.5ft 4s 3s 18 20 mph 1000.7mb 46f 46f
7:50 2ft 3s 3s 18 20 mph 1000.4mb 46f 46f
7:20 2ft 3s 3s 11 16 mph 1000.4mb 46f 46f
6:50 1.6ft 3s 3s 18 20 mph 1000.1mb 46f 46f
6:20 1.6ft 3s 3s 18 22 mph 999.9mb 46f 46f
5:50 1.6ft 3s 3s 16 20 mph 1000mb 46f 46f
5:20 1.6ft 4s 3s 9 11 mph 999.9mb 46f 46f
4:50 1.6ft 4s 3s 11
mph
999.8mb 46f 46f
4:20 2ft 4s 4s 11 16 mph 999.8mb 46f 46f
3:50 2ft 4s 4s 7
mph
999.5mb 46f 46f
3:20 2.5ft 5s 4s 7
mph
999.3mb 46f 46f
2:50 2.5ft 5s 4s 7
mph
998.6mb 46f 46f
2:20 2.5ft 5s 4s 13 16 mph 998.3mb 46f 46f
1:50 3.5ft 5s 4s 9 11 mph 998.5mb 46f 46f
1:20 3ft 4s 4s 16 18 mph 998mb 46f 46f
12:50 4ft 4s 4s 20 22 mph 997.7mb 46f 46f
12:20 4ft 5s 4s 18 22 mph 997.5mb 46f 46f
11:50 4ft 5s 4s 25 29 mph 997.2mb 46f 46f
11:20 4ft 4s 4s 25 34 mph 996.9mb 46f 46f
10:50 3.5ft 4s 4s 27 34 mph 996.3mb 46f 45f
10:20 2ft 4s 3s 29 36 mph 996.1mb 46f 45f
9:50 1ft 3s 3s 27 31 mph 996mb 46f 45f
9:20 1.3ft 3s 3s 18 22 mph 995.9mb 46f 46f
8:50 1.3ft 3s 3s 18 20 mph 995.4mb 46f 46f
8:20 1.3ft 3s 3s 18 20 mph 995.1mb 46f 46f
7:50 1ft 4s 3s 16 18 mph 994.8mb 46f 46f
7:20 1.3ft 3s 3s 13 16 mph 995.3mb 46f 46f
6:50 1.3ft 3s 3s 11 13 mph 995.5mb 46f 45f
6:20 1.6ft 3s 3s 11
mph
996mb 46f 45f
5:50 2ft 4s 4s 13 16 mph 996.3mb 46f 45f
5:20 2.5ft 4s 4s 18 20 mph 996.6mb 46f 45f
4:50 2.5ft 4s 4s 18 22 mph 996.9mb 46f 46f
4:20 3.5ft 4s 4s 18 22 mph 996.9mb 46f 46f
3:50 3ft 4s 4s 22 25 mph 997.5mb 46f 46f
3:20 3ft 4s 4s 20 25 mph 998.5mb 46f 46f
2:50 3ft 4s 4s 20 25 mph 998.7mb 46f 46f
2:20 3ft 4s 4s 20 27 mph 999.2mb 46f 46f
1:50 2.5ft 4s 4s 20 25 mph 999.2mb 46f 46f
1:20 2.5ft 4s 4s 20 27 mph 999.5mb 46f 46f
12:50 2.5ft 4s 4s 22 27 mph 999.9mb 46f 46f
12:20 2.5ft 4s 4s 18 22 mph 1000.1mb 46f 46f
Sáb 01/21 11:50 2.5ft 4s 4s 20 25 mph 1000.2mb 46f 45f
11:20 2.5ft 4s 4s 22 29 mph 1000mb 46f 45f
10:50 2.5ft 4s 4s 18 22 mph 999.9mb 46f 45f
10:20 2.5ft 4s 4s 18 22 mph 999.6mb 46f 46f
9:50 2ft 3s 3s 20 25 mph 999.5mb 46f 46f
9:20 1ft 2s 3s 20 27 mph 999.1mb 46f 47f
8:50 0.7ft  -  4s 18 22 mph 999.3mb 46f 47f
8:20 0.7ft  -  4s 9 11 mph 999.3mb 46f 47f
7:50 0.7ft  -  4s 2 4 mph 999.3mb 46f 46f
7:20 0.7ft  -  4s 2 4 mph 998.9mb 46f 46f
6:50 0.7ft  -  3s 4 7 mph 998.5mb 46f 46f
6:20 1ft 15s 3s 2
mph
998mb 46f 46f
5:50 1ft 3s 3s 2
mph
997.6mb 46f 46f
5:20 1.3ft 3s 3s 4
mph
997.1mb 46f 46f
4:50 1.3ft 3s 3s  -  2 mph 996.9mb 46f 46f
4:20 1.3ft 3s 3s 2
mph
996.5mb 46f 46f
3:50 1.3ft 4s 3s 2 4 mph 996.1mb 46f 46f
3:20 1.6ft 4s 4s  -  2 mph 995.7mb 46f 46f
2:50 2ft 4s 3s 4
mph
995.3mb 46f 46f
2:20 2.5ft 4s 4s 7
mph
994.7mb 46f 46f
1:50 2.5ft 3s 3s 11 13 mph 994.2mb 46f 48f
1:20 2.5ft 4s 3s 20 25 mph 993.8mb 46f 48f
12:50 2.5ft 4s 3s 22 27 mph 993.5mb 46f 47f
12:20 2ft 4s 4s 16 20 mph 993.7mb 46f 47f
11:50 1.6ft 4s 3s 9 11 mph 993.7mb 46f 47f
11:20 1.6ft 4s 3s 7 9 mph 993.7mb 46f 46f
10:50 1.3ft 4s 4s 9 11 mph 993.4mb 46f 46f
10:20 1.3ft 4s 3s 2
mph
993mb 46f 47f
9:50 1.3ft 4s 3s 2
mph
992.7mb 46f 47f
9:20 1.3ft 4s 3s 4 7 mph 992.2mb 46f 46f
8:50 1.6ft 4s 3s 11 13 mph 991.8mb 46f 45f
8:20 1.3ft 4s 4s 13 16 mph 991.3mb 46f 45f
7:50 1.6ft 4s 3s 11 13 mph 990.9mb 46f 45f
7:20 1.6ft 4s 3s 16 18 mph 990.6mb 46f 46f
6:50 1.6ft 3s 3s 18 20 mph 990.2mb 46f 46f
6:20 1.6ft 3s 3s 16 20 mph 990mb 46f 46f
5:50 1.3ft 3s 3s 16 20 mph 989.8mb 46f 47f
5:20 1ft 3s 3s 13 16 mph 989.7mb 46f 46f
4:50 1ft 3s 3s 13 16 mph 989.6mb 46f 46f
4:20 1.3ft 3s 3s 13 16 mph 989.4mb 46f 46f
3:50 1.3ft 3s 3s 18 20 mph 989.3mb 46f 47f
3:20 1.3ft 3s 3s 18 20 mph 989.1mb 46f 47f
2:50 1.3ft 3s 3s 16 18 mph 989mb 46f 47f
2:20 1.6ft 4s 3s 16 20 mph 988.7mb 46f 47f
1:50 1.6ft 3s 3s 18 25 mph 988.3mb 46f 47f
1:20 1.3ft 3s 3s 16 20 mph 988.1mb 46f 47f
12:50 1ft 2s 3s 16 18 mph 987.9mb 46f 47f
12:20 1ft 3s 3s 13 16 mph 987.8mb 46f 47f
Sex 01/20 11:50 0.7ft  -  3s 13 16 mph 987.6mb 46f 47f
11:20 0.7ft  -  3s 13 16 mph 987.5mb 46f 47f
10:50 0.7ft  -  4s 13 16 mph 987.3mb 46f 47f
10:20 0.3ft  -  3s 11
mph
987.1mb 46f 47f
9:50 0.3ft  -  3s 13
mph
986.8mb 46f 47f
9:20 0.3ft  -  3s 13
mph
986.7mb 46f 47f
8:50 0.7ft  -  3s 13 18 mph 986.5mb 46f 48f
8:20 0.7ft  -  3s 11 13 mph 986.5mb 46f 47f
7:50 0.3ft  -  3s 9 11 mph 986.6mb 46f 47f
7:20 0.7ft  -  3s 11 13 mph 986.3mb 46f 46f
6:50 0.7ft  -  3s 9 11 mph 986.1mb 46f 46f
6:20 0.7ft  -  3s 9 11 mph 985.9mb 46f 46f
5:50 0.7ft  -  3s 11 13 mph 985.6mb 46f 46f